createdAt,value
2023-01-18T00:00:46.570Z,1.13
2023-01-18T00:03:13.917Z,0.63
2023-01-18T00:05:41.732Z,0.80
2023-01-18T00:08:19.069Z,0.93
2023-01-18T00:10:45.954Z,1.02
2023-01-18T00:13:13.143Z,0.94
2023-01-18T00:15:39.761Z,1.03
2023-01-18T00:18:06.492Z,0.99
2023-01-18T00:20:33.311Z,0.99
2023-01-18T00:23:01.873Z,0.93
2023-01-18T00:25:29.178Z,0.99
2023-01-18T00:27:56.700Z,0.98
2023-01-18T00:30:26.066Z,0.91
2023-01-18T00:32:55.637Z,0.97
2023-01-18T00:35:22.763Z,0.96
2023-01-18T00:37:50.407Z,1.01
2023-01-18T00:40:17.558Z,0.95
2023-01-18T00:43:02.955Z,0.94
2023-01-18T00:45:29.870Z,0.96
2023-01-18T00:47:56.594Z,0.86
2023-01-18T00:50:23.337Z,0.88
2023-01-18T00:52:50.296Z,0.86
2023-01-18T00:55:17.891Z,0.89
2023-01-18T00:57:44.605Z,0.91
2023-01-18T01:00:15.339Z,0.91
2023-01-18T01:02:42.166Z,0.96
2023-01-18T01:05:39.299Z,0.95
2023-01-18T01:08:07.161Z,0.92
2023-01-18T01:10:34.860Z,0.89
2023-01-18T01:13:20.331Z,0.79
2023-01-18T01:16:05.593Z,0.76
2023-01-18T01:18:51.075Z,0.82
2023-01-18T01:21:36.360Z,0.85
2023-01-18T01:24:21.753Z,0.96
2023-01-18T01:26:48.400Z,0.94
2023-01-18T01:29:16.019Z,0.99
2023-01-18T01:31:43.068Z,0.96
2023-01-18T01:34:09.998Z,1.01
2023-01-18T01:36:36.796Z,1.03
2023-01-18T01:39:03.895Z,1.06
2023-01-18T01:41:32.726Z,1.02
2023-01-18T01:44:03.009Z,1.03
2023-01-18T01:46:35.465Z,1.03
2023-01-18T01:49:09.515Z,1.03
2023-01-18T01:51:42.289Z,1.03
2023-01-18T01:54:14.849Z,1.03
2023-01-18T01:56:45.398Z,1.02
2023-01-18T01:59:12.406Z,1.06
2023-01-18T02:01:40.416Z,1.09
2023-01-18T02:04:07.235Z,1.11
2023-01-18T02:06:35.796Z,1.13
2023-01-18T02:09:04.913Z,1.08
2023-01-18T02:11:31.694Z,1.10
2023-01-18T02:14:01.877Z,1.11
2023-01-18T02:16:59.936Z,1.08
2023-01-18T02:19:55.990Z,1.11
2023-01-18T02:23:01.136Z,1.19
2023-01-18T02:26:08.918Z,1.20
2023-01-18T02:28:39.803Z,1.18
2023-01-18T02:31:26.404Z,1.18
2023-01-18T02:34:27.179Z,1.19
2023-01-18T02:37:12.795Z,1.17
2023-01-18T02:39:52.085Z,1.15
2023-01-18T02:42:39.402Z,1.18
2023-01-18T02:45:31.371Z,1.16
2023-01-18T02:47:58.531Z,1.22
2023-01-18T02:50:27.317Z,1.24
2023-01-18T02:52:54.518Z,1.27
2023-01-18T02:55:34.840Z,1.27
2023-01-18T02:58:34.781Z,1.25
2023-01-18T03:01:12.332Z,1.17
2023-01-18T03:03:41.007Z,1.24
2023-01-18T03:06:08.578Z,1.24
2023-01-18T03:08:47.726Z,1.24
2023-01-18T03:11:18.279Z,1.25
2023-01-18T03:13:56.810Z,1.31
2023-01-18T03:16:26.251Z,1.33
2023-01-18T03:19:01.331Z,1.32
2023-01-18T03:21:48.859Z,1.29
2023-01-18T03:24:16.823Z,1.31
2023-01-18T03:26:47.274Z,1.31
2023-01-18T03:29:34.935Z,1.30
2023-01-18T03:32:29.565Z,1.23
2023-01-18T03:35:03.365Z,1.23
2023-01-18T03:37:32.436Z,1.24
2023-01-18T03:40:04.155Z,1.32
2023-01-18T03:42:37.975Z,1.26
2023-01-18T03:45:30.034Z,1.30
2023-01-18T03:47:56.688Z,1.32
2023-01-18T03:50:29.476Z,1.37
2023-01-18T03:52:59.314Z,1.38
2023-01-18T03:55:43.861Z,1.42
2023-01-18T03:58:12.831Z,1.41
2023-01-18T04:00:40.169Z,1.43
2023-01-18T04:03:07.023Z,1.44
2023-01-18T04:05:35.152Z,1.44
2023-01-18T04:08:01.824Z,1.41
2023-01-18T04:10:28.424Z,1.44
2023-01-18T04:12:55.148Z,1.45
2023-01-18T04:15:21.816Z,1.45
2023-01-18T04:17:53.217Z,1.46
2023-01-18T04:20:20.033Z,1.42
2023-01-18T04:22:52.264Z,1.44
2023-01-18T04:25:19.439Z,1.44
2023-01-18T04:27:46.064Z,1.48
2023-01-18T04:30:13.016Z,1.50
2023-01-18T04:32:40.109Z,1.51
2023-01-18T04:35:07.047Z,1.54
2023-01-18T04:37:34.245Z,1.52
2023-01-18T04:40:01.185Z,1.53
2023-01-18T04:42:27.829Z,1.52
2023-01-18T04:44:54.495Z,1.50
2023-01-18T04:47:21.164Z,1.55
2023-01-18T04:49:50.881Z,1.55
2023-01-18T04:52:19.141Z,1.56
2023-01-18T04:54:45.975Z,1.54
2023-01-18T04:57:12.663Z,1.49
2023-01-18T04:59:39.370Z,1.53
2023-01-18T05:02:06.169Z,1.53
2023-01-18T05:04:32.850Z,1.51
2023-01-18T05:07:02.305Z,1.55
2023-01-18T05:09:29.013Z,1.51
2023-01-18T05:11:55.629Z,1.53
2023-01-18T05:14:22.248Z,1.55
2023-01-18T05:16:48.949Z,1.57
2023-01-18T05:19:16.215Z,1.66
2023-01-18T05:21:42.825Z,1.71
2023-01-18T05:24:09.534Z,1.72
2023-01-18T05:26:36.531Z,1.76
2023-01-18T05:29:03.242Z,1.75
2023-01-18T05:31:29.937Z,1.77
2023-01-18T05:33:57.618Z,1.78
2023-01-18T05:36:24.362Z,1.75
2023-01-18T05:38:50.999Z,1.81
2023-01-18T05:41:18.019Z,1.82
2023-01-18T05:43:44.693Z,1.80
2023-01-18T05:46:11.496Z,1.83
2023-01-18T05:48:38.217Z,1.87
2023-01-18T05:51:09.471Z,1.88
2023-01-18T05:53:36.157Z,1.84
2023-01-18T05:56:05.402Z,1.86
2023-01-18T05:58:32.046Z,1.85
2023-01-18T06:00:58.928Z,1.90
2023-01-18T06:03:25.662Z,1.94
2023-01-18T06:05:52.552Z,1.95
2023-01-18T06:08:22.477Z,1.91
2023-01-18T06:10:56.810Z,1.91
2023-01-18T06:13:24.307Z,1.96
2023-01-18T06:15:52.095Z,1.90
2023-01-18T06:18:18.822Z,1.91
2023-01-18T06:20:45.662Z,1.95
2023-01-18T06:23:12.555Z,1.98
2023-01-18T06:25:39.248Z,2.01
2023-01-18T06:28:06.526Z,2.03
2023-01-18T06:30:34.484Z,2.03
2023-01-18T06:33:06.731Z,2.09
2023-01-18T06:35:34.354Z,2.09
2023-01-18T06:38:01.232Z,2.09
2023-01-18T06:40:34.049Z,2.08
2023-01-18T06:43:01.691Z,2.05
2023-01-18T06:45:29.492Z,2.08
2023-01-18T06:47:56.329Z,2.06
2023-01-18T06:50:23.076Z,2.11
2023-01-18T06:52:49.769Z,2.13
2023-01-18T06:55:16.521Z,2.14
2023-01-18T06:57:43.145Z,2.16
2023-01-18T07:00:11.393Z,2.16
2023-01-18T07:02:38.229Z,2.12
2023-01-18T07:05:08.095Z,2.14
2023-01-18T07:07:34.738Z,2.08
2023-01-18T07:10:01.368Z,2.15
2023-01-18T07:12:27.971Z,2.19
2023-01-18T07:14:54.616Z,2.18
2023-01-18T07:17:24.368Z,2.23
2023-01-18T07:19:51.171Z,2.17
2023-01-18T07:22:17.794Z,2.17
2023-01-18T07:24:45.664Z,2.13
2023-01-18T07:27:12.582Z,2.18
2023-01-18T07:29:39.287Z,2.21
2023-01-18T07:32:05.975Z,2.18
2023-01-18T07:34:32.631Z,1.95
2023-01-18T07:36:59.293Z,1.99
2023-01-18T07:39:25.934Z,2.12
2023-01-18T07:41:52.619Z,2.16
2023-01-18T07:44:19.381Z,2.13
2023-01-18T07:46:46.005Z,2.03
2023-01-18T07:49:12.701Z,2.06
2023-01-18T07:51:39.351Z,2.11
2023-01-18T07:54:06.091Z,2.22
2023-01-18T07:56:32.853Z,1.86
2023-01-18T07:58:59.843Z,2.12
2023-01-18T08:01:26.793Z,2.22
2023-01-18T08:03:54.852Z,2.01
2023-01-18T08:06:25.095Z,2.34
2023-01-18T08:08:52.696Z,2.45
2023-01-18T08:11:19.731Z,2.55
2023-01-18T08:13:48.990Z,2.68
2023-01-18T08:16:16.319Z,2.59
2023-01-18T08:18:45.324Z,2.69
2023-01-18T08:21:13.318Z,2.82
2023-01-18T08:23:40.604Z,2.86
2023-01-18T08:26:08.378Z,2.56
2023-01-18T08:28:35.089Z,2.86
2023-01-18T08:31:08.033Z,2.72
2023-01-18T08:33:40.084Z,2.82
2023-01-18T08:36:10.623Z,3.04
2023-01-18T08:38:37.313Z,3.09
2023-01-18T08:41:04.532Z,3.10
2023-01-18T08:43:31.429Z,3.15
2023-01-18T08:45:58.054Z,3.29
2023-01-18T08:48:24.688Z,3.28
2023-01-18T08:50:51.793Z,3.37
2023-01-18T08:53:18.530Z,3.38
2023-01-18T08:55:45.287Z,3.36
2023-01-18T08:58:12.795Z,3.46
2023-01-18T09:00:39.411Z,3.40
2023-01-18T09:03:06.944Z,3.44
2023-01-18T09:05:35.716Z,3.32
2023-01-18T09:08:03.688Z,3.41
2023-01-18T09:10:30.433Z,3.42
2023-01-18T09:12:57.428Z,3.50
2023-01-18T09:15:24.416Z,3.57
2023-01-18T09:17:51.049Z,3.61
2023-01-18T09:20:19.039Z,3.67
2023-01-18T09:22:48.680Z,3.70
2023-01-18T09:25:18.188Z,3.76
2023-01-18T09:27:46.770Z,3.72
2023-01-18T09:30:16.172Z,3.76
2023-01-18T09:32:43.025Z,3.84
2023-01-18T09:35:10.068Z,3.82
2023-01-18T09:37:36.693Z,3.84
2023-01-18T09:40:07.030Z,3.93
2023-01-18T09:42:37.131Z,3.98
2023-01-18T09:45:04.186Z,3.98
2023-01-18T09:47:40.627Z,3.96
2023-01-18T09:50:17.453Z,3.95
2023-01-18T09:53:06.019Z,4.04
2023-01-18T09:55:40.199Z,4.06
2023-01-18T09:58:36.994Z,4.09
2023-01-18T10:01:16.022Z,4.15
2023-01-18T10:03:56.313Z,4.15
2023-01-18T10:06:30.397Z,4.23
2023-01-18T10:09:07.222Z,4.11
2023-01-18T10:11:47.535Z,4.30
2023-01-18T10:14:33.308Z,4.37
2023-01-18T10:17:03.557Z,4.12
2023-01-18T10:19:31.880Z,4.21
2023-01-18T10:22:28.516Z,4.38
2023-01-18T10:25:26.467Z,4.15
2023-01-18T10:28:16.244Z,4.60
2023-01-18T10:31:23.634Z,4.57
2023-01-18T10:33:54.881Z,4.61
2023-01-18T10:36:33.522Z,4.43
2023-01-18T10:39:02.651Z,3.84
2023-01-18T10:41:34.755Z,4.34
2023-01-18T10:44:01.948Z,4.58
2023-01-18T10:46:29.234Z,4.53
2023-01-18T10:48:59.325Z,4.69
2023-01-18T10:51:36.969Z,4.81
2023-01-18T10:54:29.997Z,4.87
2023-01-18T10:57:05.920Z,4.82
2023-01-18T10:59:39.830Z,4.74
2023-01-18T11:02:29.676Z,4.71
2023-01-18T11:05:00.654Z,4.81
2023-01-18T11:07:28.638Z,4.77
2023-01-18T11:09:59.461Z,4.19
2023-01-18T11:12:38.931Z,4.59
2023-01-18T11:15:14.913Z,4.69
2023-01-18T11:17:46.126Z,4.72
2023-01-18T11:20:23.386Z,4.73
2023-01-18T11:22:54.455Z,4.87
2023-01-18T11:25:21.791Z,4.82
2023-01-18T11:27:49.189Z,4.57
2023-01-18T11:30:25.498Z,4.20
2023-01-18T11:32:52.307Z,4.54
2023-01-18T11:35:30.945Z,4.77
2023-01-18T11:37:59.197Z,4.64
2023-01-18T11:40:32.299Z,4.71
2023-01-18T11:43:04.046Z,4.68
2023-01-18T11:45:33.666Z,4.76
2023-01-18T11:48:08.635Z,4.84
2023-01-18T11:50:43.407Z,4.39
2023-01-18T11:53:13.170Z,4.52
2023-01-18T11:55:46.775Z,4.74
2023-01-18T11:58:28.594Z,4.77
2023-01-18T12:01:09.718Z,4.05
2023-01-18T12:03:53.409Z,3.96
2023-01-18T12:06:27.350Z,4.32
2023-01-18T12:09:16.808Z,4.59
2023-01-18T12:12:17.705Z,4.68
2023-01-18T12:15:18.433Z,4.74
2023-01-18T12:18:13.952Z,4.64
2023-01-18T12:21:06.118Z,4.63
2023-01-18T12:23:54.621Z,4.67
2023-01-18T12:26:30.425Z,4.73
2023-01-18T12:28:59.974Z,4.75
2023-01-18T12:31:49.639Z,4.71
2023-01-18T12:34:27.504Z,4.74
2023-01-18T12:37:11.894Z,4.72
2023-01-18T12:40:03.452Z,4.66
2023-01-18T12:43:05.335Z,4.75
2023-01-18T12:45:57.193Z,4.71
2023-01-18T12:48:42.640Z,4.65
2023-01-18T12:51:14.193Z,4.22
2023-01-18T12:53:59.374Z,4.49
2023-01-18T12:56:32.273Z,4.36
2023-01-18T12:59:01.895Z,4.60
2023-01-18T13:01:37.035Z,4.66
2023-01-18T13:04:14.342Z,4.78
2023-01-18T13:06:42.022Z,4.75
2023-01-18T13:09:19.164Z,4.60
2023-01-18T13:11:45.991Z,4.48
2023-01-18T13:14:27.690Z,4.46
2023-01-18T13:17:18.421Z,4.65
2023-01-18T13:19:54.728Z,4.70
2023-01-18T13:22:29.016Z,4.58
2023-01-18T13:25:23.580Z,4.72
2023-01-18T13:28:11.817Z,4.86
2023-01-18T13:31:06.498Z,4.86
2023-01-18T13:33:39.319Z,4.84
2023-01-18T13:36:08.185Z,4.85
2023-01-18T13:38:48.472Z,4.74
2023-01-18T13:41:17.001Z,4.78
2023-01-18T13:43:43.719Z,4.75
2023-01-18T13:46:10.317Z,4.93
2023-01-18T13:48:54.515Z,4.85
2023-01-18T13:51:39.645Z,4.52
2023-01-18T13:54:08.514Z,4.82
2023-01-18T13:56:37.685Z,4.83
2023-01-18T13:59:20.065Z,4.80
2023-01-18T14:01:51.209Z,4.65
2023-01-18T14:04:32.214Z,4.88
2023-01-18T14:07:02.234Z,4.89
2023-01-18T14:09:44.819Z,4.86
2023-01-18T14:12:12.045Z,4.87
2023-01-18T14:14:57.113Z,4.63
2023-01-18T14:17:25.395Z,4.66
2023-01-18T14:20:25.584Z,4.70
2023-01-18T14:23:17.884Z,4.17
2023-01-18T14:25:50.956Z,4.40
2023-01-18T14:28:34.834Z,4.62
2023-01-18T14:31:04.355Z,4.69
2023-01-18T14:33:35.306Z,4.65
2023-01-18T14:36:02.830Z,4.71
2023-01-18T14:38:32.675Z,4.67
2023-01-18T14:41:06.926Z,4.78
2023-01-18T14:43:41.370Z,4.78
2023-01-18T14:46:17.169Z,4.73
2023-01-18T14:48:48.533Z,4.77
2023-01-18T14:51:26.044Z,4.70
2023-01-18T14:54:02.055Z,4.48
2023-01-18T14:56:32.009Z,4.66
2023-01-18T14:59:16.800Z,4.65
2023-01-18T15:01:54.670Z,4.63
2023-01-18T15:04:33.016Z,4.63
2023-01-18T15:07:02.031Z,4.64
2023-01-18T15:09:31.416Z,4.61
2023-01-18T15:12:00.118Z,4.64
2023-01-18T15:14:29.342Z,4.61
2023-01-18T15:16:56.938Z,4.55
2023-01-18T15:19:41.770Z,4.57
2023-01-18T15:22:11.230Z,4.54
2023-01-18T15:24:40.159Z,4.53
2023-01-18T15:27:12.295Z,4.56
2023-01-18T15:29:39.511Z,4.55
2023-01-18T15:32:15.707Z,4.55
2023-01-18T15:34:45.073Z,4.55
2023-01-18T15:37:26.416Z,4.50
2023-01-18T15:40:03.788Z,4.47
2023-01-18T15:42:38.342Z,4.33
2023-01-18T15:45:12.825Z,4.43
2023-01-18T15:47:39.555Z,4.44
2023-01-18T15:50:16.483Z,4.41
2023-01-18T15:52:45.550Z,4.38
2023-01-18T15:55:34.392Z,4.39
2023-01-18T15:58:09.253Z,4.39
2023-01-18T16:00:41.226Z,4.23
2023-01-18T16:03:25.909Z,4.33
2023-01-18T16:06:11.415Z,4.30
2023-01-18T16:08:56.860Z,4.27
2023-01-18T16:11:32.215Z,4.22
2023-01-18T16:14:00.983Z,4.22
2023-01-18T16:16:29.259Z,4.23
2023-01-18T16:19:05.514Z,4.22
2023-01-18T16:21:42.883Z,4.19
2023-01-18T16:24:15.781Z,4.12
2023-01-18T16:26:43.483Z,4.15
2023-01-18T16:29:10.562Z,4.10
2023-01-18T16:31:41.119Z,3.77
2023-01-18T16:34:18.224Z,3.41
2023-01-18T16:36:44.951Z,3.76
2023-01-18T16:39:11.636Z,3.92
2023-01-18T16:41:38.361Z,3.97
2023-01-18T16:44:05.144Z,4.03
2023-01-18T16:46:33.611Z,4.04
2023-01-18T16:49:00.336Z,4.11
2023-01-18T16:51:28.874Z,3.99
2023-01-18T16:53:55.752Z,4.01
2023-01-18T16:56:22.468Z,4.08
2023-01-18T16:58:49.342Z,4.10
2023-01-18T17:01:16.650Z,4.05
2023-01-18T17:03:43.538Z,4.05
2023-01-18T17:06:16.569Z,4.04
2023-01-18T17:08:43.765Z,3.71
2023-01-18T17:11:12.514Z,3.82
2023-01-18T17:13:40.083Z,3.90
2023-01-18T17:16:12.944Z,3.89
2023-01-18T17:18:39.791Z,3.92
2023-01-18T17:21:10.602Z,3.92
2023-01-18T17:23:39.338Z,3.90
2023-01-18T17:26:13.116Z,3.91
2023-01-18T17:28:39.836Z,3.93
2023-01-18T17:31:06.609Z,3.91
2023-01-18T17:33:36.117Z,3.86
2023-01-18T17:38:49.423Z,3.82
2023-01-18T17:41:27.673Z,3.82
2023-01-18T17:43:55.371Z,3.78
2023-01-18T17:46:22.243Z,3.76
2023-01-18T17:48:49.025Z,3.65
2023-01-18T17:51:16.792Z,3.67
2023-01-18T17:53:43.534Z,3.62
2023-01-18T17:56:12.315Z,3.62
2023-01-18T17:58:39.639Z,3.55
2023-01-18T18:01:10.544Z,3.50
2023-01-18T18:03:43.377Z,3.41
2023-01-18T18:06:11.187Z,3.33
2023-01-18T18:08:39.328Z,3.30
2023-01-18T18:11:10.072Z,3.27
2023-01-18T18:13:37.202Z,3.28
2023-01-18T18:16:04.813Z,3.20
2023-01-18T18:18:31.661Z,3.18
2023-01-18T18:21:03.443Z,3.15
2023-01-18T18:23:30.464Z,3.04
2023-01-18T18:25:57.342Z,3.06
2023-01-18T18:28:25.005Z,3.08
2023-01-18T18:30:51.870Z,3.03
2023-01-18T18:33:19.436Z,2.97
2023-01-18T18:35:50.401Z,2.98
2023-01-18T18:38:23.104Z,2.99
2023-01-18T18:40:50.753Z,2.96
2023-01-18T18:43:17.516Z,2.96
2023-01-18T18:45:44.769Z,2.95
2023-01-18T18:48:13.194Z,2.91
2023-01-18T18:50:40.205Z,2.84
2023-01-18T18:53:14.021Z,2.88
2023-01-18T18:55:40.756Z,2.88
2023-01-18T18:58:07.450Z,2.89
2023-01-18T19:00:34.632Z,2.83
2023-01-18T19:03:02.753Z,2.80
2023-01-18T19:05:30.863Z,2.82
2023-01-18T19:07:57.577Z,2.79
2023-01-18T19:10:27.555Z,2.78
2023-01-18T19:12:55.164Z,2.71
2023-01-18T19:15:21.875Z,2.72
2023-01-18T19:17:50.138Z,2.64
2023-01-18T19:20:20.172Z,2.58
2023-01-18T19:22:47.942Z,2.59
2023-01-18T19:25:18.511Z,2.58
2023-01-18T19:27:45.730Z,2.49
2023-01-18T19:30:18.916Z,2.53
2023-01-18T19:32:47.725Z,2.49
2023-01-18T19:35:14.494Z,2.47
2023-01-18T19:37:41.542Z,2.40
2023-01-18T19:40:09.854Z,2.34
2023-01-18T19:42:36.626Z,2.31
2023-01-18T19:45:04.844Z,2.25
2023-01-18T19:47:31.713Z,2.21
2023-01-18T19:50:03.022Z,2.26
2023-01-18T19:52:30.661Z,2.31
2023-01-18T19:54:59.057Z,2.29
2023-01-18T19:57:26.678Z,2.17
2023-01-18T19:59:53.810Z,2.18
2023-01-18T20:02:22.678Z,2.16
2023-01-18T20:04:49.934Z,2.14
2023-01-18T20:07:16.657Z,2.12
2023-01-18T20:09:43.751Z,2.15
2023-01-18T20:12:12.707Z,2.08
2023-01-18T20:14:41.959Z,2.02
2023-01-18T20:17:10.788Z,1.93
2023-01-18T20:19:37.577Z,1.86
2023-01-18T20:27:16.354Z,1.15
2023-01-18T20:29:43.702Z,1.26
2023-01-18T20:32:16.026Z,1.51
2023-01-18T20:34:44.823Z,1.55
2023-01-18T20:37:12.825Z,1.62
2023-01-18T20:39:39.613Z,1.64
2023-01-18T20:42:06.304Z,1.64
2023-01-18T20:44:32.931Z,1.59
2023-01-18T20:46:59.490Z,1.66
2023-01-18T20:49:37.245Z,1.68
2023-01-18T20:52:05.181Z,1.67
2023-01-18T20:54:32.543Z,1.62
2023-01-18T20:57:00.109Z,1.62
2023-01-18T20:59:26.678Z,1.60
2023-01-18T21:01:53.528Z,1.56
2023-01-18T21:04:20.764Z,1.56
2023-01-18T21:06:49.970Z,1.49
2023-01-18T21:09:16.778Z,1.49
2023-01-18T21:11:43.768Z,1.44
2023-01-18T21:14:10.349Z,1.45
2023-01-18T21:16:36.989Z,1.43
2023-01-18T21:19:03.780Z,1.37
2023-01-18T21:21:31.940Z,1.37
2023-01-18T21:23:59.314Z,1.34
2023-01-18T21:26:25.988Z,1.32
2023-01-18T21:28:52.618Z,1.32
2023-01-18T21:31:19.312Z,1.34
2023-01-18T21:33:45.905Z,1.33
2023-01-18T21:36:14.623Z,1.32
2023-01-18T21:38:41.715Z,1.26
2023-01-18T21:41:27.434Z,1.23
2023-01-18T21:44:12.967Z,1.19
2023-01-18T21:46:45.103Z,1.18
2023-01-18T21:49:47.167Z,1.13
2023-01-18T21:52:37.114Z,1.15
2023-01-18T21:55:03.923Z,1.12
2023-01-18T21:57:30.531Z,1.12
2023-01-18T21:59:57.130Z,1.03
2023-01-18T22:02:23.916Z,1.07
2023-01-18T22:05:05.680Z,1.00
2023-01-18T22:07:34.301Z,0.99
2023-01-18T22:10:05.521Z,1.02
2023-01-18T22:12:35.495Z,1.02
2023-01-18T22:15:04.501Z,0.91
2023-01-18T22:17:31.411Z,0.92
2023-01-18T22:19:58.010Z,0.94
2023-01-18T22:22:24.573Z,0.94
2023-01-18T22:24:51.310Z,0.96
2023-01-18T22:27:18.022Z,0.89
2023-01-18T22:29:44.620Z,0.84
2023-01-18T22:32:11.184Z,0.78
2023-01-18T22:34:37.923Z,0.79
2023-01-18T22:37:05.695Z,0.75
2023-01-18T22:39:32.275Z,0.70
2023-01-18T22:41:58.833Z,0.76
2023-01-18T22:44:25.408Z,0.79
2023-01-18T22:46:52.199Z,0.81
2023-01-18T22:49:18.800Z,0.71
2023-01-18T22:51:45.412Z,0.69
2023-01-18T22:54:11.969Z,0.68
2023-01-18T22:56:38.535Z,0.52
2023-01-18T22:59:05.176Z,0.42
2023-01-18T23:01:32.832Z,0.48
2023-01-18T23:04:01.781Z,0.52
2023-01-18T23:06:29.595Z,0.43
2023-01-18T23:08:56.423Z,0.55
2023-01-18T23:11:26.295Z,0.57
2023-01-18T23:14:16.602Z,0.54
2023-01-18T23:17:02.289Z,0.48
2023-01-18T23:19:30.888Z,0.50
2023-01-18T23:21:58.044Z,0.46
2023-01-18T23:24:24.770Z,0.45
2023-01-18T23:26:51.841Z,0.49
2023-01-18T23:29:18.698Z,0.46
2023-01-18T23:31:45.240Z,0.48
2023-01-18T23:34:11.828Z,0.44
2023-01-18T23:36:38.505Z,0.43
2023-01-18T23:39:23.492Z,0.43
2023-01-18T23:42:08.531Z,0.37
2023-01-18T23:44:53.756Z,0.31
2023-01-18T23:47:39.078Z,0.27
2023-01-18T23:50:24.188Z,0.13
2023-01-18T23:53:09.480Z,0.19
2023-01-18T23:55:36.036Z,0.20
2023-01-18T23:58:03.011Z,0.19
